Time;durP1;ratioP1;P1;durP2;ratioP2;P2;SDS_P1;SDS_P2;PMS_P1;PMS_P2;Temp;Humidity;BMP_temperature;BMP_pressure;BME280_temperature;BME280_humidity;BME280_pressure;Samples;Min_cycle;Max_cycle;Signal;HPM_P1;HPM_P2
2022/07/30 00:01:02;;;;;;;28.27;20.20;;;;;;;26.42;80.88;100651.06;5038883;28;20526;-89
2022/07/30 00:03:28;;;;;;;26.83;19.33;;;;;;;26.32;80.63;100636.94;5019614;28;20046;-89
2022/07/30 00:05:54;;;;;;;35.78;21.30;;;;;;;26.31;80.55;100649.88;5025881;28;20035;-89
2022/07/30 00:08:20;;;;;;;26.40;19.63;;;;;;;26.30;81.26;100647.31;5027162;28;20033;-87
2022/07/30 00:10:46;;;;;;;33.60;20.27;;;;;;;26.29;81.24;100648.41;5028920;28;20104;-90
2022/07/30 00:13:11;;;;;;;29.65;19.85;;;;;;;26.14;80.91;100615.66;5047255;28;20079;-89
2022/07/30 00:15:37;;;;;;;35.85;20.42;;;;;;;26.30;80.70;100644.56;5027799;28;20021;-88
2022/07/30 00:18:02;;;;;;;24.98;20.10;;;;;;;26.16;80.90;100627.31;5047011;28;20471;-89
2022/07/30 00:20:28;;;;;;;31.15;19.88;;;;;;;26.28;80.67;100638.44;5046873;28;20025;-88
2022/07/30 00:22:54;;;;;;;32.88;21.67;;;;;;;26.26;80.58;100640.59;5043302;28;20505;-89
2022/07/30 00:25:20;;;;;;;26.10;20.05;;;;;;;26.19;80.75;100626.00;5036891;28;20119;-89
2022/07/30 00:27:46;;;;;;;23.67;18.92;;;;;;;26.11;81.16;100610.59;5022661;28;20030;-89
2022/07/30 00:30:13;;;;;;;24.33;20.63;;;;;;;26.21;81.02;100626.63;5008639;28;20498;-89
2022/07/30 00:32:38;;;;;;;26.42;20.27;;;;;;;26.15;80.92;100610.94;5019678;28;20518;-89
2022/07/30 00:35:04;;;;;;;27.35;20.35;;;;;;;26.16;80.66;100612.69;5020756;28;20026;-90
2022/07/30 00:37:30;;;;;;;25.98;20.73;;;;;;;26.22;80.70;100622.81;5039915;28;20026;-90
2022/07/30 00:39:55;;;;;;;25.77;20.50;;;;;;;26.13;80.73;100619.47;5020016;28;20030;-90
2022/07/30 00:42:24;;;;;;;27.98;20.65;;;;;;;26.17;81.07;100622.66;5016984;28;20029;-90
2022/07/30 00:44:53;;;;;;;29.48;21.52;;;;;;;26.18;80.22;100627.06;5034727;28;20030;-90
2022/07/30 00:47:19;;;;;;;30.60;20.98;;;;;;;26.05;81.05;100621.69;5033595;28;20025;-89
2022/07/30 00:49:44;;;;;;;25.85;19.85;;;;;;;26.09;80.85;100633.91;5033724;28;20554;-90
2022/07/30 00:52:10;;;;;;;31.10;22.50;;;;;;;26.05;80.69;100610.66;5016378;28;20063;-89
2022/07/30 00:54:35;;;;;;;30.17;19.45;;;;;;;25.87;80.67;100604.00;5016017;28;20900;-90
2022/07/30 00:57:01;;;;;;;27.08;21.30;;;;;;;25.87;79.90;100604.00;5033711;28;20104;-90
2022/07/30 00:59:27;;;;;;;30.33;23.08;;;;;;;25.88;80.09;100594.66;5015988;28;20025;-90
2022/07/30 01:01:53;;;;;;;33.65;21.58;;;;;;;25.77;80.68;100600.91;5016285;28;20041;-89
2022/07/30 01:04:19;;;;;;;34.72;22.13;;;;;;;25.92;80.48;100615.22;5016734;28;20079;-90
2022/07/30 01:06:44;;;;;;;36.35;22.15;;;;;;;25.92;80.53;100617.97;5034090;28;20104;-89
2022/07/30 01:09:10;;;;;;;25.38;21.27;;;;;;;25.79;80.26;100590.50;5016607;28;20040;-89
2022/07/30 01:11:37;;;;;;;29.75;20.98;;;;;;;25.93;79.79;100611.38;5016689;28;20025;-90
2022/07/30 01:14:05;;;;;;;31.88;20.88;;;;;;;25.93;80.04;100616.06;5051628;28;20384;-90
2022/07/30 01:16:32;;;;;;;33.63;20.42;;;;;;;25.82;79.60;100600.22;5036153;28;20053;-90
2022/07/30 01:21:48;;;;;;;31.27;19.38;;;;;;;25.73;80.71;100599.66;5054172;28;20036;-89
2022/07/30 01:24:38;;;;;;;28.15;21.40;;;;;;;25.65;81.22;100591.69;5028458;28;20095;-90
2022/07/30 01:27:05;;;;;;;27.50;20.27;;;;;;;25.50;81.27;100574.66;5016656;28;20032;-89
2022/07/30 01:29:32;;;;;;;27.67;20.55;;;;;;;25.70;81.20;100611.13;5017567;28;20032;-89
2022/07/30 01:32:00;;;;;;;38.28;20.95;;;;;;;25.66;81.26;100612.66;5043619;28;20063;-89
2022/07/30 01:34:31;;;;;;;33.63;23.05;;;;;;;25.65;81.74;100612.88;5058695;28;20495;-90
2022/07/30 01:36:58;;;;;;;31.60;22.07;;;;;;;25.55;82.05;100598.75;5061981;28;20025;-89
2022/07/30 01:39:25;;;;;;;28.00;22.67;;;;;;;25.55;82.58;100605.09;5063662;28;20025;-89
2022/07/30 01:41:53;;;;;;;27.80;20.50;;;;;;;25.47;82.40;100596.25;5034693;28;20025;-90
2022/07/30 01:44:19;;;;;;;26.58;20.95;;;;;;;25.41;82.60;100578.72;5016349;28;20128;-89
2022/07/30 01:46:46;;;;;;;27.50;19.80;;;;;;;25.44;82.91;100592.03;5016991;28;20026;-89
2022/07/30 01:49:14;;;;;;;33.22;21.33;;;;;;;25.24;83.10;100577.53;5016589;28;20021;-90
2022/07/30 01:51:42;;;;;;;22.55;18.65;;;;;;;25.35;83.52;100593.38;5019928;28;20079;-89
2022/07/30 01:54:11;;;;;;;25.13;19.15;;;;;;;25.20;83.48;100584.53;5019787;28;20071;-89
2022/07/30 01:56:39;;;;;;;23.33;20.55;;;;;;;25.10;83.37;100578.69;5019989;28;20035;-89
2022/07/30 01:59:07;;;;;;;24.23;20.08;;;;;;;25.10;83.56;100584.19;5019966;28;20048;-90
2022/07/30 02:01:33;;;;;;;26.92;19.98;;;;;;;25.07;83.32;100585.47;5020250;28;20046;-90
2022/07/30 02:04:01;;;;;;;23.02;20.55;;;;;;;25.05;83.54;100570.22;5019898;28;20542;-90
2022/07/30 02:06:32;;;;;;;22.98;19.55;;;;;;;25.15;83.79;100589.88;5019847;28;20033;-89
2022/07/30 02:09:02;;;;;;;25.73;20.27;;;;;;;25.10;83.61;100596.06;5037520;28;20022;-91
2022/07/30 02:14:22;;;;;;;27.10;21.13;;;;;;;25.07;83.73;100592.91;5037413;28;20087;-90
2022/07/30 02:16:52;;;;;;;33.22;22.38;;;;;;;24.98;84.22;100595.06;5019731;28;20022;-90
2022/07/30 02:19:20;;;;;;;27.98;21.60;;;;;;;24.82;84.59;100571.63;5019564;28;20029;-91
2022/07/30 02:21:59;;;;;;;28.02;21.25;;;;;;;24.79;84.81;100576.69;5037164;28;20085;-91
2022/07/30 02:24:28;;;;;;;30.08;23.10;;;;;;;24.91;84.49;100591.50;5019628;28;20033;-91
2022/07/30 02:27:03;;;;;;;29.23;21.83;;;;;;;24.96;83.97;100588.06;5037197;28;20021;-91
2022/07/30 02:29:32;;;;;;;25.35;20.98;;;;;;;24.94;84.06;100595.69;5036727;28;20083;-90
2022/07/30 02:31:59;;;;;;;27.00;21.65;;;;;;;24.85;84.04;100584.97;5028903;28;20087;-90
2022/07/30 02:34:27;;;;;;;31.80;23.52;;;;;;;24.81;84.37;100575.44;5056556;28;20107;-90
2022/07/30 02:36:53;;;;;;;29.35;23.90;;;;;;;24.87;84.43;100582.81;5056833;28;20078;-91
2022/07/30 02:39:20;;;;;;;34.70;24.02;;;;;;;24.84;84.47;100577.75;5056591;28;20056;-91
2022/07/30 02:41:47;;;;;;;30.02;21.88;;;;;;;24.90;83.93;100590.63;5056353;28;20025;-91
2022/07/30 02:44:17;;;;;;;26.23;21.90;;;;;;;24.90;83.43;100584.28;5056242;28;20486;-90
2022/07/30 02:46:43;;;;;;;28.77;19.15;;;;;;;24.93;83.37;100586.59;5056553;28;20102;-91
2022/07/30 02:49:12;;;;;;;29.77;20.48;;;;;;;24.82;83.15;100568.88;5039052;28;20021;-91
2022/07/30 02:51:38;;;;;;;31.63;21.40;;;;;;;24.92;83.48;100592.34;5038928;28;20037;-91
2022/07/30 02:54:06;;;;;;;28.92;20.95;;;;;;;24.82;83.42;100571.63;5038461;28;20021;-90
2022/07/30 02:56:35;;;;;;;22.55;19.70;;;;;;;24.78;83.85;100566.75;5039170;28;20106;-90
2022/07/30 02:59:03;;;;;;;27.38;20.38;;;;;;;24.75;83.93;100557.03;5039108;28;20060;-90
2022/07/30 03:01:31;;;;;;;26.95;19.58;;;;;;;24.90;84.06;100582.38;5037906;28;20060;-90
2022/07/30 03:03:59;;;;;;;24.13;18.95;;;;;;;24.74;83.74;100551.72;5038920;28;20028;-90
2022/07/30 03:06:26;;;;;;;30.77;19.77;;;;;;;24.82;84.00;100570.78;5039400;28;20031;-90
2022/07/30 03:08:53;;;;;;;26.50;19.40;;;;;;;24.96;83.91;100577.06;5038850;28;20083;-90
2022/07/30 03:11:21;;;;;;;27.67;18.90;;;;;;;24.83;83.72;100555.97;5056179;28;20025;-90
2022/07/30 03:13:47;;;;;;;22.10;18.48;;;;;;;24.83;84.07;100555.97;5038332;28;20061;-89
2022/07/30 03:16:15;;;;;;;25.80;17.52;;;;;;;24.91;84.03;100577.72;5039046;28;20044;-90
2022/07/30 03:18:42;;;;;;;22.13;18.38;;;;;;;24.74;84.37;100552.56;5038798;28;20107;-90
2022/07/30 03:21:11;;;;;;;30.27;18.48;;;;;;;24.76;84.36;100555.97;5039787;28;20031;-90
2022/07/30 03:23:38;;;;;;;21.05;16.50;;;;;;;24.99;83.93;100588.47;5059367;28;20036;-89
2022/07/30 03:26:05;;;;;;;26.92;17.00;;;;;;;24.83;83.75;100573.31;5058440;28;20052;-89
2022/07/30 03:28:35;;;;;;;26.80;17.38;;;;;;;24.84;83.89;100574.16;5056213;28;20059;-89
2022/07/30 03:31:01;;;;;;;23.98;16.88;;;;;;;24.81;83.98;100567.19;5038342;28;20032;-90
2022/07/30 03:33:28;;;;;;;23.35;16.45;;;;;;;24.78;84.31;100570.34;5038015;28;20033;-88
2022/07/30 03:35:55;;;;;;;27.17;18.80;;;;;;;24.71;84.38;100557.66;5058663;28;20021;-89
2022/07/30 03:38:22;;;;;;;26.85;18.60;;;;;;;24.85;84.74;100576.69;5057018;28;20025;-90
2022/07/30 03:40:48;;;;;;;26.52;17.80;;;;;;;24.77;84.93;100562.28;5038436;28;20032;-90
2022/07/30 03:43:13;;;;;;;23.17;17.77;;;;;;;24.77;84.70;100565.03;5038095;28;20029;-90
2022/07/30 03:45:41;;;;;;;22.55;15.85;;;;;;;24.84;84.78;100568.66;5038144;28;20025;-90
2022/07/30 03:48:08;;;;;;;23.33;17.13;;;;;;;24.92;84.95;100586.84;5038371;28;20035;-89
2022/07/30 03:50:38;;;;;;;26.88;17.60;;;;;;;24.96;85.17;100599.06;5056359;28;20029;-90
2022/07/30 03:53:05;;;;;;;21.63;14.85;;;;;;;25.01;85.06;100599.28;5050903;28;20118;-90
2022/07/30 03:55:31;;;;;;;20.08;15.15;;;;;;;25.00;84.75;100595.69;5055490;28;20025;-90
2022/07/30 03:57:59;;;;;;;17.25;14.80;;;;;;;25.00;84.12;100590.16;5024294;28;20041;-89
2022/07/30 04:00:25;;;;;;;27.58;14.43;;;;;;;25.07;83.65;100593.75;5018059;28;20032;-90
2022/07/30 04:02:51;;;;;;;20.38;14.63;;;;;;;25.16;83.11;100599.81;5035645;28;20068;-89
2022/07/30 04:05:17;;;;;;;21.20;16.02;;;;;;;25.11;82.89;100586.72;5017872;28;20487;-89
2022/07/30 04:07:42;;;;;;;20.00;14.55;;;;;;;25.25;82.45;100595.75;5017497;28;20033;-89
2022/07/30 04:10:08;;;;;;;23.38;15.10;;;;;;;25.35;82.21;100593.38;5017415;28;20434;-91
2022/07/30 04:12:34;;;;;;;22.20;15.57;;;;;;;25.40;81.96;100601.78;5034959;28;20039;-91
2022/07/30 04:14:59;;;;;;;19.33;14.68;;;;;;;25.40;81.93;100602.66;5035306;28;20029;-92
2022/07/30 04:21:36;;;;;;;19.65;14.85;;;;;;;25.15;81.09;100534.81;4960024;28;20054;-94
2022/07/30 04:24:22;;;;;;;35.47;20.25;;;;;;;25.44;80.59;100586.53;5108086;23;20052;-90
2022/07/30 04:26:49;;;;;;;36.40;21.33;;;;;;;25.51;80.22;100579.06;5055955;28;20033;-92
2022/07/30 04:29:16;;;;;;;24.05;20.83;;;;;;;25.56;80.15;100584.78;5055761;28;20028;-91
2022/07/30 04:34:13;;;;;;;27.63;18.25;;;;;;;25.59;80.01;100587.09;5063917;28;20498;-88
2022/07/30 04:36:39;;;;;;;25.00;18.30;;;;;;;25.61;79.98;100590.44;5054305;28;20052;-76
2022/07/30 04:39:05;;;;;;;21.48;14.95;;;;;;;25.68;79.60;100594.00;5062257;28;21582;-78
2022/07/30 04:41:30;;;;;;;28.17;14.23;;;;;;;25.75;79.34;100596.69;5071465;28;20025;-78
2022/07/30 04:43:56;;;;;;;18.27;13.35;;;;;;;25.75;78.79;100581.00;5071278;28;20025;-78
2022/07/30 04:46:21;;;;;;;21.13;13.43;;;;;;;25.82;78.47;100590.06;5071327;28;20028;-78
2022/07/30 04:48:47;;;;;;;30.58;20.35;;;;;;;25.89;78.20;100585.34;5071121;28;20036;-78
2022/07/30 04:51:22;;;;;;;18.70;13.02;;;;;;;25.87;78.47;100586.63;5071759;28;20500;-78
2022/07/30 04:53:49;;;;;;;22.63;14.65;;;;;;;25.94;78.07;100588.25;5071456;28;20048;-79
2022/07/30 04:56:16;;;;;;;19.30;11.88;;;;;;;25.93;78.08;100585.75;5047635;28;20035;-78
2022/07/30 04:58:43;;;;;;;17.20;12.25;;;;;;;25.90;77.85;100580.69;5073078;28;20032;-83
2022/07/30 05:01:10;;;;;;;19.00;11.88;;;;;;;25.95;77.29;100587.19;5065648;28;20116;-84
2022/07/30 05:03:37;;;;;;;14.77;11.30;;;;;;;25.98;76.83;100595.00;5057100;28;20035;-83
2022/07/30 05:06:05;;;;;;;25.02;12.43;;;;;;;26.03;76.96;100590.72;5053848;28;20064;-88
2022/07/30 05:08:31;;;;;;;17.95;10.73;;;;;;;26.08;76.84;100582.63;5055124;28;20471;-87
2022/07/30 05:10:56;;;;;;;15.80;11.10;;;;;;;26.07;76.44;100575.41;5053807;28;20029;-87
2022/07/30 05:13:22;;;;;;;21.50;12.95;;;;;;;26.14;76.43;100592.75;5035577;28;20040;-85
2022/07/30 05:15:47;;;;;;;17.35;11.68;;;;;;;26.18;76.13;100580.19;5053136;28;20021;-85
2022/07/30 05:18:13;;;;;;;14.38;10.82;;;;;;;26.23;76.25;100597.78;5053756;28;20462;-85
2022/07/30 05:20:39;;;;;;;13.80;10.65;;;;;;;26.12;76.02;100570.06;5036040;28;20040;-87
2022/07/30 05:23:04;;;;;;;15.77;10.88;;;;;;;26.25;75.77;100589.25;5043432;28;20052;-85
2022/07/30 05:25:30;;;;;;;12.18;9.88;;;;;;;26.31;75.34;100586.44;5058535;28;20049;-90
2022/07/30 05:28:04;;;;;;;15.65;10.15;;;;;;;26.42;75.37;100598.63;5040698;28;20021;-88
2022/07/30 05:30:30;;;;;;;29.55;18.27;;;;;;;26.46;74.86;100597.09;5039666;28;20083;-87
2022/07/30 05:32:55;;;;;;;28.50;20.20;;;;;;;26.51;74.32;100592.56;5038575;28;20427;-85
2022/07/30 05:35:21;;;;;;;40.22;20.70;;;;;;;26.49;74.67;100589.19;5038126;28;20518;-91
2022/07/30 05:37:46;;;;;;;32.92;18.15;;;;;;;26.61;73.63;100594.78;5056619;28;20024;-85
2022/07/30 05:40:12;;;;;;;34.60;20.83;;;;;;;26.64;73.65;100588.81;5057302;28;20021;-85
2022/07/30 05:42:37;;;;;;;33.78;18.92;;;;;;;26.67;72.23;100587.50;5046207;28;20025;-86
2022/07/30 05:45:03;;;;;;;15.00;10.13;;;;;;;26.82;72.22;100586.06;5077455;28;20036;-85
2022/07/30 05:47:29;;;;;;;16.33;11.30;;;;;;;26.95;72.13;100596.09;5077366;28;20107;-85
2022/07/30 05:49:54;;;;;;;18.58;11.13;;;;;;;26.90;71.18;100577.50;5076997;28;20032;-84
2022/07/30 05:52:20;;;;;;;14.98;9.88;;;;;;;27.07;71.01;100582.34;5058598;28;20032;-85
2022/07/30 05:54:45;;;;;;;13.95;9.45;;;;;;;27.04;70.29;100570.69;5057215;28;20028;-90
2022/07/30 05:57:10;;;;;;;16.50;9.65;;;;;;;27.14;69.65;100577.59;5045542;28;20035;-83
2022/07/30 05:59:36;;;;;;;15.02;9.73;;;;;;;27.28;68.81;100585.44;5056802;28;20029;-86
2022/07/30 06:02:03;;;;;;;35.80;16.38;;;;;;;27.36;69.59;100587.03;5056506;28;20031;-84
2022/07/30 06:04:28;;;;;;;28.85;18.20;;;;;;;27.49;70.38;100581.34;5057454;28;20051;-81
2022/07/30 06:06:54;;;;;;;29.58;19.50;;;;;;;27.51;70.47;100579.19;5058244;28;20028;-82
2022/07/30 06:09:20;;;;;;;33.35;20.27;;;;;;;27.58;70.34;100574.41;5057722;28;20079;-81
2022/07/30 06:11:45;;;;;;;30.65;19.77;;;;;;;27.60;70.54;100563.94;5056903;28;20028;-86
2022/07/30 06:14:11;;;;;;;33.55;19.75;;;;;;;27.69;69.18;100581.88;5058637;28;20056;-83
2022/07/30 06:16:37;;;;;;;31.55;18.48;;;;;;;27.74;69.08;100573.69;5055106;28;20440;-80
2022/07/30 06:19:03;;;;;;;31.88;18.00;;;;;;;27.84;68.40;100579.47;5055965;28;20538;-81
2022/07/30 06:21:28;;;;;;;31.25;19.40;;;;;;;27.86;68.69;100580.06;5037307;28;20085;-77
2022/07/30 06:23:54;;;;;;;29.60;18.30;;;;;;;27.89;69.07;100571.31;5054243;28;20037;-79
2022/07/30 06:26:19;;;;;;;39.45;21.52;;;;;;;27.92;68.95;100565.28;5053743;28;20025;-79
2022/07/30 06:28:44;;;;;;;35.03;20.02;;;;;;;28.00;68.98;100562.19;5053590;28;20068;-78
2022/07/30 06:31:10;;;;;;;29.48;20.20;;;;;;;28.09;68.94;100565.47;5054094;28;20384;-80
2022/07/30 06:33:35;;;;;;;32.75;19.40;;;;;;;28.16;68.21;100570.88;5052927;28;20141;-78
2022/07/30 06:36:01;;;;;;;31.98;18.25;;;;;;;28.26;68.18;100568.31;5051963;28;20017;-76
2022/07/30 06:38:26;;;;;;;29.40;18.38;;;;;;;28.27;67.52;100561.72;5052484;28;20098;-77
2022/07/30 06:40:52;;;;;;;24.85;17.10;;;;;;;28.35;66.94;100575.16;5052486;28;20024;-77
2022/07/30 06:43:18;;;;;;;31.42;16.70;;;;;;;28.40;66.15;100569.78;5035215;28;20475;-86
2022/07/30 06:45:43;;;;;;;29.92;17.20;;;;;;;28.39;66.25;100577.22;5055856;28;20108;-84
2022/07/30 06:48:09;;;;;;;28.48;18.52;;;;;;;28.40;66.50;100572.53;5055835;28;20060;-86
2022/07/30 06:50:35;;;;;;;35.10;17.70;;;;;;;28.34;66.43;100568.81;5055839;28;20020;-87
2022/07/30 06:53:01;;;;;;;26.55;17.90;;;;;;;28.13;66.95;100532.63;5037883;28;20021;-84
2022/07/30 06:55:28;;;;;;;25.75;19.15;;;;;;;28.35;66.75;100567.72;5055446;28;20371;-87
2022/07/30 06:57:53;;;;;;;45.33;22.27;;;;;;;28.45;66.28;100564.34;5037571;28;20537;-85
2022/07/30 07:00:23;;;;;;;25.40;16.50;;;;;;;28.58;65.95;100567.69;5055835;28;20530;-86
2022/07/30 07:02:50;;;;;;;28.92;17.60;;;;;;;28.55;65.67;100559.03;5037389;28;20025;-82
2022/07/30 07:05:16;;;;;;;33.88;18.67;;;;;;;28.55;65.64;100548.81;5055909;28;20029;-86
2022/07/30 07:07:41;;;;;;;20.50;15.40;;;;;;;28.66;65.21;100557.34;5055810;28;20021;-88
2022/07/30 07:10:07;;;;;;;19.02;14.82;;;;;;;28.75;64.34;100548.41;5055540;28;20025;-86
2022/07/30 07:12:36;;;;;;;24.88;14.43;;;;;;;28.87;64.43;100554.75;5055458;28;20029;-87
2022/07/30 07:15:01;;;;;;;31.33;16.17;;;;;;;28.93;64.10;100562.06;5037558;28;20028;-87
2022/07/30 07:17:27;;;;;;;29.35;14.80;;;;;;;28.84;64.16;100535.00;5037833;28;20020;-86
2022/07/30 07:19:53;;;;;;;22.88;14.43;;;;;;;28.97;64.48;100546.66;5056060;28;20028;-85
2022/07/30 07:22:18;;;;;;;31.15;14.55;;;;;;;28.95;64.00;100543.31;5055355;28;20501;-85
2022/07/30 07:24:43;;;;;;;23.10;14.02;;;;;;;28.98;63.40;100533.66;5055043;28;20086;-82
2022/07/30 07:27:09;;;;;;;23.42;14.13;;;;;;;29.02;63.29;100554.22;5053650;28;20101;-82
2022/07/30 07:29:35;;;;;;;32.45;14.55;;;;;;;29.16;63.41;100562.00;5054668;28;20107;-81
2022/07/30 07:32:00;;;;;;;24.98;14.48;;;;;;;29.02;63.72;100537.63;5054290;28;20035;-82
2022/07/30 07:34:25;;;;;;;31.13;13.82;;;;;;;29.13;63.06;100556.09;5054474;28;20138;-81
2022/07/30 07:36:51;;;;;;;26.08;14.73;;;;;;;29.08;63.62;100551.28;5054912;28;20029;-81
2022/07/30 07:39:16;;;;;;;30.27;14.40;;;;;;;29.06;63.49;100538.78;5055163;28;20021;-81
2022/07/30 07:41:42;;;;;;;28.77;13.13;;;;;;;29.07;63.67;100552.41;5054617;28;20025;-79
2022/07/30 07:44:07;;;;;;;21.80;12.52;;;;;;;29.14;63.04;100552.25;5035525;28;20040;-81
2022/07/30 07:46:33;;;;;;;24.75;12.77;;;;;;;29.26;63.00;100566.06;5035321;28;20017;-83
2022/07/30 07:48:58;;;;;;;36.38;13.82;;;;;;;29.26;63.11;100557.75;5053157;28;20418;-83
2022/07/30 07:51:24;;;;;;;29.40;12.50;;;;;;;29.37;63.03;100573.47;5054245;28;20032;-77
2022/07/30 07:53:49;;;;;;;31.42;15.07;;;;;;;29.33;62.82;100566.75;5053702;28;20032;-85
2022/07/30 07:56:15;;;;;;;19.80;12.20;;;;;;;29.29;62.40;100555.34;5055591;28;20023;-83
2022/07/30 07:58:40;;;;;;;32.00;11.95;;;;;;;29.35;61.76;100570.13;5052177;28;20040;-76
2022/07/30 08:01:06;;;;;;;14.52;10.30;;;;;;;29.26;61.95;100552.22;5054287;28;20087;-82
2022/07/30 08:03:31;;;;;;;23.48;10.70;;;;;;;29.22;62.17;100564.84;5053356;28;20032;-81
2022/07/30 08:05:57;;;;;;;23.80;11.52;;;;;;;29.10;62.54;100535.28;5054277;28;20024;-87
2022/07/30 08:08:23;;;;;;;29.17;12.27;;;;;;;29.26;62.92;100541.13;5053132;28;20033;-83
2022/07/30 08:10:49;;;;;;;15.15;10.13;;;;;;;29.39;63.19;100554.66;5052098;28;20017;-80
2022/07/30 08:13:14;;;;;;;21.67;11.07;;;;;;;29.40;62.97;100542.50;5051322;28;20091;-80
2022/07/30 08:15:40;;;;;;;18.63;11.07;;;;;;;29.45;63.23;100545.34;5050832;28;20418;-77
2022/07/30 08:18:06;;;;;;;19.38;10.82;;;;;;;29.53;62.89;100543.03;5053173;28;20049;-84
2022/07/30 08:20:32;;;;;;;21.83;10.70;;;;;;;29.48;62.98;100525.47;5037486;28;20051;-84
2022/07/30 08:22:58;;;;;;;24.05;11.43;;;;;;;29.56;63.00;100536.97;5053102;28;20458;-86
2022/07/30 08:25:23;;;;;;;19.40;10.60;;;;;;;29.58;63.20;100536.72;5036078;28;20102;-86
2022/07/30 08:27:48;;;;;;;35.30;12.95;;;;;;;29.57;63.14;100526.72;5020152;28;20048;-85
2022/07/30 08:30:14;;;;;;;19.95;10.82;;;;;;;29.53;63.06;100539.41;5036343;28;20032;-85
2022/07/30 08:32:39;;;;;;;22.38;11.15;;;;;;;29.43;63.38;100539.22;5054275;28;20072;-82
2022/07/30 08:35:06;;;;;;;21.35;11.30;;;;;;;29.46;63.49;100530.41;5053505;28;20471;-86
2022/07/30 08:37:31;;;;;;;27.77;10.73;;;;;;;29.55;63.69;100531.66;5053789;28;20021;-81
2022/07/30 08:39:56;;;;;;;19.98;10.68;;;;;;;29.65;63.28;100540.16;5052930;28;20448;-81
2022/07/30 08:42:22;;;;;;;16.42;10.18;;;;;;;29.57;63.19;100530.31;5052441;28;20808;-86
2022/07/30 08:44:51;;;;;;;16.65;10.95;;;;;;;29.57;63.66;100537.81;5037012;28;20040;-84
2022/07/30 08:47:17;;;;;;;19.65;9.68;;;;;;;29.42;63.82;100512.59;5055530;28;20073;-79
2022/07/30 08:49:47;;;;;;;21.60;9.93;;;;;;;29.56;64.39;100525.03;5053237;28;20766;-82
2022/07/30 08:52:14;;;;;;;15.13;9.80;;;;;;;29.57;64.28;100515.66;5049309;28;20024;-87
2022/07/30 08:54:39;;;;;;;22.73;10.65;;;;;;;29.63;64.00;100520.19;5053142;28;20099;-81
2022/07/30 08:57:05;;;;;;;22.50;9.85;;;;;;;29.65;64.39;100521.59;5053251;28;20560;-81
2022/07/30 08:59:31;;;;;;;17.15;10.05;;;;;;;29.70;63.93;100518.91;5052025;28;20154;-78
2022/07/30 09:01:57;;;;;;;19.30;9.88;;;;;;;29.64;63.46;100513.53;5032644;28;20024;-78
2022/07/30 09:04:23;;;;;;;16.75;8.93;;;;;;;29.72;63.52;100515.88;5051580;28;20028;-79
2022/07/30 09:06:48;;;;;;;20.92;9.73;;;;;;;29.63;63.67;100509.09;5027585;28;20029;-80
2022/07/30 09:09:14;;;;;;;23.58;9.75;;;;;;;29.71;63.86;100522.50;5051462;28;20025;-80
2022/07/30 09:11:40;;;;;;;15.50;9.10;;;;;;;29.69;63.64;100508.09;5050462;28;20460;-80
2022/07/30 09:14:13;;;;;;;12.25;8.68;;;;;;;29.83;63.27;100512.19;5027345;28;20044;-79
2022/07/30 09:16:39;;;;;;;21.83;10.07;;;;;;;29.91;62.21;100513.69;5050409;28;20100;-78
2022/07/30 09:19:20;;;;;;;20.42;9.52;;;;;;;29.88;62.28;100512.28;5050574;28;20087;-79
2022/07/30 09:21:56;;;;;;;16.00;8.52;;;;;;;29.90;62.47;100507.34;5048316;28;20119;-79
2022/07/30 09:24:23;;;;;;;13.88;8.68;;;;;;;29.90;62.58;100512.03;5032597;28;20028;-79
2022/07/30 09:27:05;;;;;;;28.45;8.45;;;;;;;29.89;61.88;100500.09;5032827;28;20498;-81
2022/07/30 09:29:31;;;;;;;34.05;9.27;;;;;;;29.88;61.29;100492.84;5050970;28;20025;-79
2022/07/30 09:32:02;;;;;;;16.85;7.70;;;;;;;30.02;60.82;100501.69;5051085;28;20043;-79
2022/07/30 09:34:30;;;;;;;26.57;7.73;;;;;;;30.06;60.89;100500.06;5050515;28;20024;-79
2022/07/30 09:36:57;;;;;;;14.43;7.95;;;;;;;30.14;60.97;100494.91;5050724;28;20096;-80
2022/07/30 09:39:33;;;;;;;21.40;8.55;;;;;;;30.19;60.64;100494.97;5050684;28;20071;-79
2022/07/30 09:42:00;;;;;;;9.52;6.30;;;;;;;30.32;60.32;100490.16;5032883;28;20115;-79
2022/07/30 09:44:28;;;;;;;14.85;7.03;;;;;;;30.38;60.14;100486.34;5033660;28;20025;-80
2022/07/30 09:46:56;;;;;;;13.18;7.70;;;;;;;30.44;59.99;100497.28;5032763;28;20450;-80
2022/07/30 09:49:26;;;;;;;20.77;7.65;;;;;;;30.47;59.73;100493.16;5050538;28;20036;-79
2022/07/30 09:51:53;;;;;;;11.65;7.35;;;;;;;30.33;59.75;100494.63;5037195;28;20029;-81
2022/07/30 09:54:19;;;;;;;18.85;8.20;;;;;;;30.35;60.39;100487.69;5050560;28;20033;-80
2022/07/30 09:56:45;;;;;;;14.32;7.53;;;;;;;30.33;59.72;100497.38;5050885;28;20021;-77
2022/07/30 09:59:26;;;;;;;25.55;7.13;;;;;;;30.32;59.35;100496.53;5050260;28;20035;-79
2022/07/30 10:01:53;;;;;;;19.97;6.40;;;;;;;30.36;58.84;100500.50;5038703;28;20443;-77
2022/07/30 10:04:31;;;;;;;22.90;6.75;;;;;;;30.36;58.72;100491.31;5031242;28;20034;-78
2022/07/30 10:06:59;;;;;;;28.13;6.55;;;;;;;30.21;58.49;100487.22;5031834;28;20032;-79
2022/07/30 10:09:28;;;;;;;25.05;6.95;;;;;;;30.14;59.31;100494.91;5051578;28;20044;-78
2022/07/30 10:11:59;;;;;;;18.30;6.43;;;;;;;30.35;58.69;100495.19;5054079;28;20693;-80
2022/07/30 10:14:28;;;;;;;13.40;6.78;;;;;;;30.38;58.49;100487.19;5055183;28;20101;-79
2022/07/30 10:16:55;;;;;;;8.40;6.70;;;;;;;30.34;58.72;100479.63;5041406;28;20415;-80
2022/07/30 10:19:20;;;;;;;12.77;5.80;;;;;;;30.41;58.65;100494.19;5016306;28;20021;-78
2022/07/30 10:21:49;;;;;;;22.77;7.88;;;;;;;30.44;58.95;100490.91;5052104;28;20093;-78
2022/07/30 10:24:18;;;;;;;18.65;6.43;;;;;;;30.60;58.61;100498.31;5034866;28;20032;-77
2022/07/30 10:26:45;;;;;;;19.48;6.18;;;;;;;30.59;58.27;100482.75;5048960;28;20029;-79
2022/07/30 10:29:14;;;;;;;17.52;6.70;;;;;;;30.80;57.51;100498.53;5043590;28;20483;-78
2022/07/30 10:31:39;;;;;;;20.67;6.07;;;;;;;30.79;57.79;100488.56;5047265;28;20091;-81
2022/07/30 10:34:06;;;;;;;10.43;5.85;;;;;;;30.78;57.56;100481.31;5050955;28;20467;-81
2022/07/30 10:36:34;;;;;;;25.85;6.40;;;;;;;31.02;57.62;100499.38;5052317;28;20021;-78
2022/07/30 10:39:00;;;;;;;20.08;7.70;;;;;;;31.11;56.10;100483.91;5035434;28;20460;-81
2022/07/30 10:41:41;;;;;;;28.38;7.97;;;;;;;31.26;56.50;100489.63;5035314;28;20542;-80
2022/07/30 10:44:35;;;;;;;18.50;7.28;;;;;;;31.37;56.51;100484.16;5070829;28;20025;-85
2022/07/30 10:47:08;;;;;;;18.10;7.07;;;;;;;31.53;56.20;100484.03;5032854;28;20045;-83
2022/07/30 10:49:34;;;;;;;40.08;8.30;;;;;;;31.53;56.31;100477.66;5072782;28;20032;-75
2022/07/30 10:52:00;;;;;;;26.27;6.97;;;;;;;31.67;55.85;100476.09;5047317;28;20037;-77
2022/07/30 10:54:43;;;;;;;16.13;7.38;;;;;;;31.81;55.95;100480.06;5068328;28;20031;-80
2022/07/30 10:57:20;;;;;;;24.65;7.13;;;;;;;31.83;55.42;100475.91;5050181;28;20016;-83
2022/07/30 10:59:48;;;;;;;14.15;6.45;;;;;;;31.93;55.15;100477.06;5058915;28;20012;-82
2022/07/30 11:02:15;;;;;;;21.33;5.70;;;;;;;32.02;55.69;100470.75;5020526;28;20740;-81
2022/07/30 11:04:40;;;;;;;25.65;7.40;;;;;;;32.02;56.21;100459.59;5070109;28;20020;-81
2022/07/30 11:07:21;;;;;;;15.45;6.90;;;;;;;31.93;56.60;100472.34;5056843;28;20032;-82
2022/07/30 11:09:48;;;;;;;11.88;5.97;;;;;;;31.97;55.98;100462.38;5074898;28;20127;-81
2022/07/30 11:12:14;;;;;;;23.90;6.28;;;;;;;32.03;55.54;100461.31;5075269;28;20031;-81
2022/07/30 11:14:45;;;;;;;13.35;5.95;;;;;;;32.12;55.13;100467.22;5074287;28;20052;-80
2022/07/30 11:17:13;;;;;;;10.32;5.25;;;;;;;32.24;56.06;100460.31;5074274;28;20201;-80
2022/07/30 11:20:06;;;;;;;5.97;4.97;;;;;;;32.29;56.30;100465.09;5074098;28;20143;-81
2022/07/30 11:22:39;;;;;;;16.77;5.18;;;;;;;32.34;56.38;100467.88;5041757;28;20041;-80
2022/07/30 11:25:20;;;;;;;11.93;5.78;;;;;;;32.37;57.01;100456.19;5053884;28;20029;-80